Terminal Aerodrome Forecast
Issued by NWS Mt. Holly, NJ

Home | Current Version | Previous Version | Text Only | Print | Product List | Glossary On
Versions: 1 2 3 4 5 6 7 8 9 10 11 12 13 14 15 16 17 18 19 20 21 22 23 24 25 26 27 28
536
FTUS41 KPHI 101511 AAC
TAFTTN
TAF AMD
KTTN 101511Z 1015/1112 27009KT 5SM -SN BKN030 OVC045
     FM101530 28012G22KT P6SM BKN060
     FM110000 30010KT P6SM BKN060=

USA.gov is the U.S. government's official web portal to all federal, state and local government web resources and services.